Time;durP1;ratioP1;P1;durP2;ratioP2;P2;SDS_P1;SDS_P2;PMS_P1;PMS_P2;Temp;Humidity;BMP_temperature;BMP_pressure;BME280_temperature;BME280_humidity;BME280_pressure;Samples;Min_cycle;Max_cycle;Signal;HPM_P1;HPM_P2
2021/12/29 00:01:53;;;;;;;74.65;24.55;;;6.30;99.90;;;;;;5150277;27;20249;-71
2021/12/29 00:04:19;;;;;;;98.60;25.80;;;6.30;99.90;;;;;;5130198;27;20038;-71
2021/12/29 00:06:45;;;;;;;60.47;21.05;;;6.30;99.90;;;;;;5127651;27;20447;-71
2021/12/29 00:09:10;;;;;;;75.88;23.55;;;6.30;99.90;;;;;;5145995;27;20043;-72
2021/12/29 00:11:39;;;;;;;92.35;23.30;;;6.30;99.90;;;;;;5147016;27;20117;-72
2021/12/29 00:14:05;;;;;;;56.92;20.05;;;6.20;99.90;;;;;;5143898;27;20070;-72
2021/12/29 00:16:34;;;;;;;78.03;23.13;;;6.30;99.90;;;;;;5123474;27;20526;-72
2021/12/29 00:19:01;;;;;;;69.32;21.60;;;6.20;99.90;;;;;;5128243;27;20398;-72
2021/12/29 00:21:27;;;;;;;60.40;20.48;;;6.20;99.90;;;;;;5148846;27;20049;-72
2021/12/29 00:23:58;;;;;;;67.43;21.55;;;6.20;99.90;;;;;;5147639;27;20517;-72
2021/12/29 00:26:25;;;;;;;58.75;20.10;;;6.20;99.90;;;;;;5146685;27;20125;-72
2021/12/29 00:28:51;;;;;;;76.13;23.20;;;6.20;99.90;;;;;;5131425;27;20558;-72
2021/12/29 00:31:16;;;;;;;77.15;24.08;;;6.20;99.90;;;;;;5149736;27;20035;-72
2021/12/29 00:33:42;;;;;;;79.43;23.85;;;6.20;99.90;;;;;;5127706;27;20038;-72
2021/12/29 00:36:08;;;;;;;82.50;25.33;;;6.20;99.90;;;;;;5143048;27;20608;-72
2021/12/29 00:38:34;;;;;;;51.28;18.52;;;6.20;99.90;;;;;;5128892;27;20508;-72
2021/12/29 00:40:59;;;;;;;72.38;23.73;;;6.20;99.90;;;;;;5148704;27;20089;-73
2021/12/29 00:43:25;;;;;;;57.75;19.50;;;6.20;99.90;;;;;;5126693;27;20050;-73
2021/12/29 00:45:51;;;;;;;43.83;16.52;;;6.20;99.90;;;;;;5130370;27;20429;-72
2021/12/29 00:48:18;;;;;;;61.70;20.23;;;6.20;99.90;;;;;;5124676;27;20440;-73
2021/12/29 00:50:44;;;;;;;53.63;19.55;;;6.20;99.90;;;;;;5127349;27;20078;-73
2021/12/29 00:53:10;;;;;;;52.60;19.02;;;6.20;99.90;;;;;;5118051;27;20576;-73
2021/12/29 00:55:36;;;;;;;58.72;19.90;;;6.20;99.90;;;;;;5130121;27;20118;-73
2021/12/29 00:58:03;;;;;;;51.28;17.13;;;6.20;99.90;;;;;;5124155;27;20047;-73
2021/12/29 01:00:29;;;;;;;57.33;18.25;;;6.20;99.90;;;;;;5143498;27;20046;-73
2021/12/29 01:02:55;;;;;;;71.53;19.38;;;6.20;99.90;;;;;;5150957;27;20042;-73
2021/12/29 01:05:21;;;;;;;62.38;19.02;;;6.20;99.90;;;;;;5143042;27;20046;-71
2021/12/29 01:07:49;;;;;;;54.45;17.30;;;6.20;99.90;;;;;;5126314;27;20051;-72
2021/12/29 01:10:16;;;;;;;62.35;19.13;;;6.20;99.90;;;;;;5130555;27;20129;-72
2021/12/29 01:12:53;;;;;;;48.05;15.13;;;6.20;99.90;;;;;;5126299;27;20051;-72
2021/12/29 01:15:25;;;;;;;38.95;14.45;;;6.30;99.90;;;;;;5130393;27;20530;-72
2021/12/29 01:17:52;;;;;;;41.95;14.40;;;6.20;99.90;;;;;;5130831;27;20134;-72
2021/12/29 01:20:19;;;;;;;62.28;18.40;;;6.20;99.90;;;;;;5144990;27;20047;-72
2021/12/29 01:22:45;;;;;;;78.00;18.55;;;6.20;99.90;;;;;;5131416;27;20046;-72
2021/12/29 01:25:10;;;;;;;88.53;18.88;;;6.20;99.90;;;;;;5130095;27;20034;-72
2021/12/29 01:27:36;;;;;;;69.97;19.45;;;6.20;99.90;;;;;;5129443;27;20426;-72
2021/12/29 01:30:08;;;;;;;55.97;15.65;;;6.30;99.90;;;;;;5147357;27;20035;-72
2021/12/29 01:32:34;;;;;;;90.20;20.90;;;6.30;99.90;;;;;;5132530;27;20035;-72
2021/12/29 01:35:00;;;;;;;142.88;25.80;;;6.30;99.90;;;;;;5129923;27;20106;-72
2021/12/29 01:37:25;;;;;;;250.82;40.65;;;6.30;99.90;;;;;;5127602;27;20131;-72
2021/12/29 01:39:51;;;;;;;99.00;19.60;;;6.30;99.90;;;;;;5143734;27;20097;-72
2021/12/29 01:42:17;;;;;;;159.00;28.02;;;6.40;99.90;;;;;;5130105;27;20042;-72
2021/12/29 01:44:42;;;;;;;131.35;23.52;;;6.30;99.90;;;;;;5129350;27;20046;-72
2021/12/29 01:47:08;;;;;;;113.00;23.02;;;6.30;99.90;;;;;;5121379;27;20054;-72
2021/12/29 01:49:33;;;;;;;103.70;23.17;;;6.30;99.90;;;;;;5147717;27;20038;-72
2021/12/29 01:52:09;;;;;;;172.48;27.73;;;6.40;99.90;;;;;;5131496;27;20039;-72
2021/12/29 01:54:35;;;;;;;130.13;25.55;;;6.40;99.90;;;;;;5145414;27;20125;-72
2021/12/29 01:57:05;;;;;;;107.10;22.40;;;6.40;99.90;;;;;;5128161;27;20091;-72
2021/12/29 01:59:30;;;;;;;126.63;24.00;;;6.40;99.90;;;;;;5130041;27;20049;-72
2021/12/29 02:01:56;;;;;;;115.05;23.70;;;6.40;99.90;;;;;;5121867;27;20039;-72
2021/12/29 02:04:22;;;;;;;164.98;26.95;;;6.40;99.90;;;;;;5127437;27;20035;-72
2021/12/29 02:06:49;;;;;;;112.53;22.88;;;6.40;99.90;;;;;;5148351;27;20062;-73
2021/12/29 02:09:14;;;;;;;123.57;24.48;;;6.40;99.90;;;;;;5126850;27;20039;-72
2021/12/29 02:11:42;;;;;;;166.68;27.75;;;6.40;99.90;;;;;;5125143;27;20053;-72
2021/12/29 02:14:09;;;;;;;142.82;26.13;;;6.40;99.90;;;;;;5148356;27;20627;-72
2021/12/29 02:16:35;;;;;;;168.88;26.55;;;6.40;99.90;;;;;;5130265;27;20039;-72
2021/12/29 02:19:05;;;;;;;157.95;27.45;;;6.40;99.90;;;;;;5145648;27;20076;-72
2021/12/29 02:21:32;;;;;;;186.07;28.25;;;6.40;99.90;;;;;;5126328;27;20088;-73
2021/12/29 02:26:31;;;;;;;166.77;28.10;;;6.50;99.90;;;;;;5132842;27;20114;-73
2021/12/29 02:29:00;;;;;;;169.48;28.42;;;6.50;99.90;;;;;;5131505;27;20121;-72
2021/12/29 02:31:27;;;;;;;154.55;27.58;;;6.40;99.90;;;;;;5132898;27;20055;-72
2021/12/29 02:33:53;;;;;;;235.77;31.70;;;6.50;99.90;;;;;;5135435;27;20041;-72
2021/12/29 02:36:21;;;;;;;125.85;23.00;;;6.50;99.90;;;;;;5125843;27;20051;-72
2021/12/29 02:38:52;;;;;;;151.88;26.60;;;6.50;99.90;;;;;;5128874;27;20039;-73
2021/12/29 02:41:18;;;;;;;121.63;22.67;;;6.60;99.90;;;;;;5125610;27;20435;-73
2021/12/29 02:43:44;;;;;;;123.53;22.83;;;6.60;99.90;;;;;;5153300;27;20031;-73
2021/12/29 02:46:13;;;;;;;100.53;21.63;;;6.60;99.90;;;;;;5133829;27;20045;-73
2021/12/29 02:48:45;;;;;;;82.65;19.08;;;6.60;99.90;;;;;;5124236;27;20050;-73
2021/12/29 02:51:11;;;;;;;131.05;21.05;;;6.60;99.90;;;;;;5127226;27;20043;-72
2021/12/29 02:53:37;;;;;;;156.70;26.23;;;6.60;99.90;;;;;;5131935;27;20041;-73
2021/12/29 02:56:04;;;;;;;65.88;15.50;;;6.60;99.90;;;;;;5132179;27;20039;-73
2021/12/29 02:58:31;;;;;;;54.92;14.07;;;6.60;99.90;;;;;;5129961;27;20047;-73
2021/12/29 03:01:00;;;;;;;70.93;16.02;;;6.70;99.90;;;;;;5131100;27;20043;-73
2021/12/29 03:03:28;;;;;;;80.15;17.52;;;6.70;99.90;;;;;;5131794;27;20047;-73
2021/12/29 03:05:54;;;;;;;54.67;14.02;;;6.80;99.90;;;;;;5127021;27;20046;-73
2021/12/29 03:08:21;;;;;;;68.65;15.35;;;6.80;99.90;;;;;;5146317;27;20077;-73
2021/12/29 03:10:52;;;;;;;65.00;14.98;;;6.70;99.90;;;;;;5131280;27;20046;-73
2021/12/29 03:13:19;;;;;;;50.90;13.32;;;6.70;99.90;;;;;;5129436;27;20043;-73
2021/12/29 03:15:44;;;;;;;50.97;14.05;;;6.80;99.90;;;;;;5132957;27;20106;-73
2021/12/29 03:18:10;;;;;;;49.17;14.32;;;6.80;99.90;;;;;;5129774;27;20122;-73
2021/12/29 03:20:35;;;;;;;73.32;15.98;;;6.80;99.90;;;;;;5148869;27;20087;-73
2021/12/29 03:23:01;;;;;;;57.00;13.38;;;6.80;99.90;;;;;;5131469;27;20051;-73
2021/12/29 03:25:27;;;;;;;59.67;14.88;;;6.80;99.90;;;;;;5127602;27;20086;-73
2021/12/29 03:28:00;;;;;;;52.92;13.63;;;6.80;99.90;;;;;;5131416;27;20122;-74
2021/12/29 03:30:28;;;;;;;69.28;14.65;;;6.80;99.90;;;;;;5130675;27;20046;-74
2021/12/29 03:33:02;;;;;;;58.67;15.65;;;6.90;99.90;;;;;;5130186;27;20371;-74
2021/12/29 03:35:30;;;;;;;56.20;12.98;;;6.90;99.90;;;;;;5131083;27;20035;-74
2021/12/29 03:37:55;;;;;;;76.78;17.40;;;6.90;99.90;;;;;;5126651;27;20043;-74
2021/12/29 03:40:21;;;;;;;57.88;14.75;;;6.80;99.90;;;;;;5148798;27;20506;-74
2021/12/29 03:42:46;;;;;;;67.25;17.05;;;6.90;99.90;;;;;;5148096;27;20038;-74
2021/12/29 03:45:12;;;;;;;80.32;18.00;;;6.90;99.90;;;;;;5150456;27;20114;-74
2021/12/29 03:47:38;;;;;;;75.35;17.95;;;6.90;99.90;;;;;;5131503;27;20057;-74
2021/12/29 03:50:04;;;;;;;73.43;19.25;;;6.90;99.90;;;;;;5147812;27;20047;-74
2021/12/29 03:52:29;;;;;;;88.50;21.08;;;6.90;99.90;;;;;;5128859;27;20046;-74
2021/12/29 03:54:55;;;;;;;87.32;21.90;;;6.90;99.90;;;;;;5128229;27;20039;-74
2021/12/29 03:57:21;;;;;;;98.53;22.38;;;6.90;99.90;;;;;;5131143;27;20082;-74
2021/12/29 03:59:46;;;;;;;98.20;23.80;;;7.00;99.90;;;;;;5131631;27;20149;-74
2021/12/29 04:02:12;;;;;;;76.25;19.70;;;7.00;99.90;;;;;;5127195;27;20054;-74
2021/12/29 04:04:38;;;;;;;115.75;25.83;;;7.00;99.90;;;;;;5133225;27;20056;-74
2021/12/29 04:07:03;;;;;;;100.25;25.17;;;7.00;99.90;;;;;;5130844;27;20055;-74
2021/12/29 04:09:29;;;;;;;109.47;24.90;;;7.00;99.90;;;;;;5124006;27;20081;-74
2021/12/29 04:11:54;;;;;;;71.85;20.30;;;7.00;99.90;;;;;;5142329;27;20042;-74
2021/12/29 04:14:25;;;;;;;92.32;23.45;;;7.00;99.90;;;;;;5130570;27;20538;-74
2021/12/29 04:16:51;;;;;;;65.60;20.00;;;6.90;99.90;;;;;;5130424;27;20090;-75
2021/12/29 04:19:29;;;;;;;81.50;23.30;;;6.90;99.90;;;;;;5128866;27;20050;-74
2021/12/29 04:21:57;;;;;;;77.88;22.30;;;6.90;99.90;;;;;;5129506;27;20035;-75
2021/12/29 04:24:23;;;;;;;116.30;29.00;;;6.90;99.90;;;;;;5130168;27;20039;-75
2021/12/29 04:26:49;;;;;;;103.32;26.98;;;7.00;99.90;;;;;;5147104;27;20038;-75
2021/12/29 04:29:14;;;;;;;81.05;23.52;;;7.10;99.90;;;;;;5148388;27;20041;-75
2021/12/29 04:31:41;;;;;;;91.35;25.85;;;7.10;99.90;;;;;;5129987;27;20074;-75
2021/12/29 04:34:10;;;;;;;84.72;23.83;;;7.10;99.90;;;;;;5148585;27;20505;-75
2021/12/29 04:36:36;;;;;;;76.70;22.80;;;7.10;99.90;;;;;;5123099;27;20070;-75
2021/12/29 04:39:04;;;;;;;54.13;19.05;;;7.10;99.90;;;;;;5131562;27;20046;-75
2021/12/29 04:41:30;;;;;;;64.57;20.50;;;7.10;99.90;;;;;;5124314;27;20063;-75
2021/12/29 04:43:55;;;;;;;74.45;23.38;;;7.10;99.90;;;;;;5127822;27;20039;-75
2021/12/29 04:46:28;;;;;;;66.82;22.58;;;7.10;99.90;;;;;;5132584;27;20037;-75
2021/12/29 04:49:00;;;;;;;73.10;21.70;;;7.10;99.90;;;;;;5113444;27;20130;-75
2021/12/29 04:51:33;;;;;;;88.95;24.73;;;7.10;99.90;;;;;;5127305;27;20051;-75
2021/12/29 04:54:00;;;;;;;77.88;23.45;;;7.10;99.90;;;;;;5126769;27;20036;-75
2021/12/29 04:56:26;;;;;;;81.63;24.88;;;7.10;99.90;;;;;;5147803;27;20412;-75
2021/12/29 04:58:52;;;;;;;66.45;21.25;;;7.20;99.90;;;;;;5144350;27;20027;-74
2021/12/29 05:01:17;;;;;;;68.32;22.40;;;7.10;99.90;;;;;;5129796;27;20447;-74
2021/12/29 05:03:44;;;;;;;68.50;22.48;;;7.10;99.90;;;;;;5130863;27;20042;-74
2021/12/29 05:08:37;;;;;;;59.38;19.90;;;7.10;99.90;;;;;;5130287;27;20047;-74
2021/12/29 05:11:05;;;;;;;71.70;22.30;;;7.10;99.90;;;;;;5143257;27;20040;-75
2021/12/29 05:13:33;;;;;;;65.93;21.20;;;7.10;99.90;;;;;;5127943;27;20046;-75
2021/12/29 05:15:59;;;;;;;67.05;22.95;;;7.10;99.90;;;;;;5129204;27;20046;-75
2021/12/29 05:18:27;;;;;;;72.53;21.58;;;7.10;99.90;;;;;;5130868;27;20134;-75
2021/12/29 05:20:54;;;;;;;70.45;24.52;;;7.10;99.90;;;;;;5129549;27;20047;-75
2021/12/29 05:23:20;;;;;;;60.03;22.60;;;7.20;99.90;;;;;;5122988;28;20039;-75
2021/12/29 05:25:46;;;;;;;55.63;19.55;;;7.20;99.90;;;;;;5128850;27;20187;-75
2021/12/29 05:28:13;;;;;;;54.90;20.90;;;7.20;99.90;;;;;;5143619;27;20051;-75
2021/12/29 05:30:38;;;;;;;61.97;23.20;;;7.20;99.90;;;;;;5121919;27;20394;-75
2021/12/29 05:33:05;;;;;;;58.80;20.95;;;7.20;99.90;;;;;;5124248;28;20043;-75
2021/12/29 05:35:32;;;;;;;62.88;22.90;;;7.10;99.90;;;;;;5126680;27;20042;-75
2021/12/29 05:37:58;;;;;;;58.20;22.48;;;7.20;99.90;;;;;;5124683;27;20043;-75
2021/12/29 05:40:24;;;;;;;76.88;26.42;;;7.20;99.90;;;;;;5129480;27;20050;-75
2021/12/29 05:42:50;;;;;;;61.15;22.17;;;7.20;99.90;;;;;;5128434;27;20051;-75
2021/12/29 05:45:17;;;;;;;48.53;20.73;;;7.20;99.90;;;;;;5128827;27;20502;-76
2021/12/29 05:47:43;;;;;;;74.28;24.85;;;7.20;99.90;;;;;;5128850;27;20047;-76
2021/12/29 05:50:13;;;;;;;87.82;27.50;;;7.20;99.90;;;;;;5128947;27;20039;-76
2021/12/29 05:52:39;;;;;;;70.53;23.35;;;7.20;99.90;;;;;;5149203;27;20046;-76
2021/12/29 05:55:06;;;;;;;73.20;25.40;;;7.20;99.90;;;;;;5131419;27;20378;-75
2021/12/29 05:57:31;;;;;;;56.40;23.90;;;7.20;99.90;;;;;;5131006;27;20047;-76
2021/12/29 05:59:57;;;;;;;60.83;21.65;;;7.20;99.90;;;;;;5133456;27;20129;-76
2021/12/29 06:02:23;;;;;;;74.82;26.85;;;7.20;99.90;;;;;;5125963;27;20381;-76
2021/12/29 06:04:48;;;;;;;79.10;27.73;;;7.20;99.90;;;;;;5131011;27;20043;-76
2021/12/29 06:07:14;;;;;;;63.67;22.33;;;7.20;99.90;;;;;;5133778;27;20039;-76
2021/12/29 06:09:40;;;;;;;69.13;24.95;;;7.30;99.90;;;;;;5134337;27;20117;-76
2021/12/29 06:12:07;;;;;;;68.70;26.40;;;7.20;99.90;;;;;;5122599;27;20535;-76
2021/12/29 06:14:32;;;;;;;62.85;27.25;;;7.30;99.90;;;;;;5128254;27;20067;-76
2021/12/29 06:16:58;;;;;;;63.85;24.52;;;7.20;99.90;;;;;;5133375;27;20504;-76
2021/12/29 06:19:24;;;;;;;64.50;23.67;;;7.30;99.90;;;;;;5150505;27;20034;-76
2021/12/29 06:21:49;;;;;;;61.33;25.35;;;7.20;99.90;;;;;;5131092;27;20031;-76
2021/12/29 06:24:15;;;;;;;65.50;26.05;;;7.20;99.90;;;;;;5150085;27;20530;-77
2021/12/29 06:26:40;;;;;;;60.47;22.45;;;7.20;99.90;;;;;;5152585;27;20043;-76
2021/12/29 06:29:06;;;;;;;69.32;29.55;;;7.20;99.90;;;;;;5128596;27;20054;-76
2021/12/29 06:31:35;;;;;;;67.80;23.83;;;7.60;99.90;;;;;;5130354;27;20042;-77
2021/12/29 06:34:02;;;;;;;52.75;20.13;;;7.20;99.90;;;;;;5131928;27;20047;-77
2021/12/29 06:36:28;;;;;;;61.83;21.73;;;7.20;99.90;;;;;;5133549;27;20039;-76
2021/12/29 06:38:54;;;;;;;53.78;23.60;;;7.20;99.90;;;;;;5124251;27;20463;-77
2021/12/29 06:41:19;;;;;;;64.82;22.23;;;7.20;99.90;;;;;;5133264;27;20039;-77
2021/12/29 06:43:45;;;;;;;65.78;25.38;;;7.40;99.90;;;;;;5147099;27;20129;-77
2021/12/29 06:46:11;;;;;;;72.18;27.10;;;7.30;99.90;;;;;;5133546;27;20160;-77
2021/12/29 06:48:37;;;;;;;62.45;24.13;;;7.30;99.90;;;;;;5131501;27;20046;-77
2021/12/29 06:51:02;;;;;;;71.55;21.25;;;7.30;99.90;;;;;;5124007;27;20059;-77
2021/12/29 06:53:30;;;;;;;69.97;23.92;;;7.30;99.90;;;;;;5151653;27;20050;-77
2021/12/29 06:55:56;;;;;;;94.68;35.47;;;7.30;99.90;;;;;;5133141;27;20046;-77
2021/12/29 06:58:21;;;;;;;79.68;23.88;;;7.30;99.90;;;;;;5150382;27;20958;-77
2021/12/29 07:00:47;;;;;;;90.82;35.25;;;7.30;99.90;;;;;;5143659;27;20038;-77
2021/12/29 07:03:13;;;;;;;53.10;20.02;;;7.30;99.90;;;;;;5147430;27;20039;-77
2021/12/29 07:05:40;;;;;;;75.30;20.63;;;7.30;99.90;;;;;;5151642;27;20059;-78
2021/12/29 07:08:06;;;;;;;194.38;37.28;;;7.40;99.90;;;;;;5149523;27;20062;-78
2021/12/29 07:10:32;;;;;;;91.78;25.67;;;7.30;99.90;;;;;;5130843;27;20486;-78
2021/12/29 07:12:58;;;;;;;86.30;22.30;;;7.40;99.90;;;;;;5143589;27;20051;-77
2021/12/29 07:15:23;;;;;;;91.15;21.77;;;7.30;99.90;;;;;;5150784;27;20486;-77
2021/12/29 07:17:49;;;;;;;79.30;23.98;;;7.40;99.90;;;;;;5150298;27;20042;-77
2021/12/29 07:20:14;;;;;;;72.97;21.25;;;7.30;99.90;;;;;;5146270;27;20038;-77
2021/12/29 07:22:40;;;;;;;105.15;29.98;;;7.30;99.90;;;;;;5150375;27;20478;-77
2021/12/29 07:25:06;;;;;;;71.82;21.95;;;7.30;99.90;;;;;;5131514;27;20540;-78
2021/12/29 07:27:32;;;;;;;69.03;21.10;;;7.40;99.90;;;;;;5146957;27;20455;-78
2021/12/29 07:29:57;;;;;;;114.05;25.23;;;7.40;99.90;;;;;;5130327;27;20042;-78
2021/12/29 07:32:23;;;;;;;93.10;23.95;;;7.40;99.90;;;;;;5147576;27;20500;-78
2021/12/29 07:34:48;;;;;;;113.35;36.15;;;7.40;99.90;;;;;;5150863;27;20069;-79
2021/12/29 07:37:14;;;;;;;135.40;25.92;;;7.40;99.90;;;;;;5149737;27;20397;-77
2021/12/29 07:39:40;;;;;;;99.85;28.27;;;7.40;99.90;;;;;;5129511;27;20046;-78
2021/12/29 07:42:07;;;;;;;113.78;28.83;;;7.40;99.90;;;;;;5127750;27;20051;-78
2021/12/29 07:44:32;;;;;;;74.20;22.33;;;7.40;99.90;;;;;;5149004;27;20154;-78
2021/12/29 07:46:59;;;;;;;74.25;26.88;;;7.40;99.90;;;;;;5149858;27;20142;-78
2021/12/29 07:49:26;;;;;;;145.00;57.38;;;7.40;99.90;;;;;;5130528;27;20026;-78
2021/12/29 07:51:53;;;;;;;80.45;24.20;;;7.40;99.90;;;;;;5148690;27;20393;-78
2021/12/29 07:54:20;;;;;;;110.07;30.83;;;7.40;99.90;;;;;;5149756;27;20087;-77
2021/12/29 07:56:45;;;;;;;105.68;32.63;;;7.40;99.90;;;;;;5131555;27;20371;-77
2021/12/29 07:59:12;;;;;;;109.57;45.60;;;7.40;99.90;;;;;;5130247;27;20103;-77
2021/12/29 08:01:39;;;;;;;100.07;38.47;;;7.40;99.90;;;;;;5144541;27;20042;-78
2021/12/29 08:04:05;;;;;;;77.95;24.80;;;7.40;99.90;;;;;;5129056;27;20084;-78
2021/12/29 08:06:31;;;;;;;99.13;36.53;;;7.40;99.90;;;;;;5128746;27;20058;-78
2021/12/29 08:08:56;;;;;;;86.10;33.00;;;7.40;99.90;;;;;;5128194;27;20064;-78
2021/12/29 08:11:22;;;;;;;100.60;32.75;;;7.40;99.90;;;;;;5124137;27;20130;-78
2021/12/29 08:13:48;;;;;;;76.22;24.33;;;7.40;99.90;;;;;;5128425;27;20130;-76
2021/12/29 08:16:14;;;;;;;59.50;19.90;;;7.40;99.90;;;;;;5149600;27;20066;-76
2021/12/29 08:18:40;;;;;;;66.35;22.73;;;7.40;99.90;;;;;;5146390;27;20046;-76
2021/12/29 08:21:06;;;;;;;79.47;25.50;;;7.50;99.90;;;;;;5128009;27;20272;-77
2021/12/29 08:23:32;;;;;;;57.80;19.70;;;7.40;99.90;;;;;;5149362;27;20051;-76
2021/12/29 08:25:59;;;;;;;63.90;22.50;;;7.40;99.90;;;;;;5144631;27;20046;-76
2021/12/29 08:28:25;;;;;;;71.53;22.85;;;7.40;99.90;;;;;;5127418;27;20569;-76
2021/12/29 08:30:51;;;;;;;71.95;24.98;;;7.40;99.90;;;;;;5148760;27;20113;-77
2021/12/29 08:33:17;;;;;;;69.97;21.63;;;7.40;99.90;;;;;;5130051;27;20038;-75
2021/12/29 08:35:42;;;;;;;62.58;19.30;;;7.40;99.90;;;;;;5148900;27;20038;-75
2021/12/29 08:38:08;;;;;;;74.82;19.52;;;7.40;99.90;;;;;;5146913;27;20475;-75
2021/12/29 08:40:34;;;;;;;76.03;22.60;;;7.40;99.90;;;;;;5127278;27;20039;-76
2021/12/29 08:43:02;;;;;;;94.10;23.67;;;7.40;99.90;;;;;;5148308;27;20520;-75
2021/12/29 08:45:28;;;;;;;155.18;30.83;;;7.50;99.90;;;;;;5130105;27;20488;-75
2021/12/29 08:47:55;;;;;;;85.85;23.13;;;7.50;99.90;;;;;;5126910;27;20134;-76
2021/12/29 08:50:22;;;;;;;81.78;23.95;;;7.50;99.90;;;;;;5145134;27;20053;-76
2021/12/29 08:52:48;;;;;;;119.22;27.17;;;7.40;99.90;;;;;;5120158;27;20062;-76
2021/12/29 08:55:14;;;;;;;128.45;26.40;;;7.50;99.90;;;;;;5143422;27;20031;-76
2021/12/29 08:57:40;;;;;;;156.45;30.25;;;7.50;99.90;;;;;;5143719;27;20038;-76
2021/12/29 09:00:10;;;;;;;145.73;29.25;;;7.50;99.90;;;;;;5143305;27;20042;-76
2021/12/29 09:02:36;;;;;;;163.75;32.88;;;7.50;99.90;;;;;;5143327;27;20051;-76
2021/12/29 09:05:01;;;;;;;194.05;53.88;;;7.50;99.90;;;;;;5123951;27;21120;-76
2021/12/29 09:07:27;;;;;;;113.00;37.30;;;7.50;99.90;;;;;;5143865;27;20350;-76
2021/12/29 09:09:53;;;;;;;132.10;34.15;;;7.50;99.90;;;;;;5145297;27;20090;-76
2021/12/29 09:12:18;;;;;;;241.25;37.45;;;7.50;99.90;;;;;;5121347;27;20039;-76
2021/12/29 09:14:45;;;;;;;134.55;43.35;;;7.50;99.90;;;;;;5146725;27;20066;-76
2021/12/29 09:17:11;;;;;;;134.57;29.83;;;7.50;99.90;;;;;;5140248;27;20042;-76
2021/12/29 09:19:40;;;;;;;95.72;27.30;;;7.50;99.90;;;;;;5146735;27;20078;-76
2021/12/29 09:22:07;;;;;;;101.18;23.00;;;7.50;99.90;;;;;;5125585;27;20054;-76
2021/12/29 09:24:33;;;;;;;96.00;22.98;;;7.60;99.90;;;;;;5146146;27;20047;-76
2021/12/29 09:26:59;;;;;;;93.35;22.55;;;7.60;99.90;;;;;;5148768;27;20045;-76
2021/12/29 09:29:24;;;;;;;95.60;25.35;;;7.60;99.90;;;;;;5144599;27;20114;-76
2021/12/29 09:31:50;;;;;;;115.55;24.33;;;7.60;99.90;;;;;;5147218;27;20062;-73
2021/12/29 09:34:16;;;;;;;147.00;25.42;;;7.60;99.90;;;;;;5153988;27;20050;-75
2021/12/29 09:36:41;;;;;;;80.25;20.95;;;7.60;99.90;;;;;;5147783;27;20134;-75
2021/12/29 09:39:07;;;;;;;98.13;22.35;;;7.60;99.90;;;;;;5129359;27;20043;-73
2021/12/29 09:41:33;;;;;;;87.35;19.20;;;7.70;99.90;;;;;;5152752;27;20039;-76
2021/12/29 09:43:58;;;;;;;183.73;31.00;;;7.70;99.90;;;;;;5151233;27;20050;-75
2021/12/29 09:46:24;;;;;;;237.43;38.25;;;7.70;99.90;;;;;;5146290;27;20130;-75
2021/12/29 09:48:51;;;;;;;193.50;32.50;;;7.50;99.90;;;;;;5152636;27;20042;-75
2021/12/29 09:51:18;;;;;;;177.52;30.27;;;7.70;99.90;;;;;;5150770;27;20031;-75
2021/12/29 09:53:44;;;;;;;266.85;43.67;;;7.70;99.90;;;;;;5153388;27;20374;-75
2021/12/29 09:56:11;;;;;;;214.77;34.10;;;7.70;99.90;;;;;;5130652;27;20039;-74
2021/12/29 09:58:38;;;;;;;243.05;32.88;;;7.70;99.90;;;;;;5132114;27;20125;-74
2021/12/29 10:01:07;;;;;;;208.25;29.55;;;7.70;99.90;;;;;;5151181;27;20042;-74
2021/12/29 10:03:33;;;;;;;85.15;19.70;;;7.80;99.90;;;;;;5132533;27;20074;-75
2021/12/29 10:06:02;;;;;;;186.82;29.48;;;7.80;99.90;;;;;;5130305;27;20046;-75
2021/12/29 10:08:34;;;;;;;185.07;26.15;;;7.80;99.90;;;;;;5148975;27;20489;-75
2021/12/29 10:11:10;;;;;;;191.13;29.48;;;7.80;99.90;;;;;;5128429;27;20046;-75
2021/12/29 10:13:39;;;;;;;145.90;24.95;;;7.80;99.90;;;;;;5131644;27;20034;-75
2021/12/29 10:16:15;;;;;;;184.25;23.75;;;7.80;99.90;;;;;;5147901;27;20037;-75
2021/12/29 10:18:43;;;;;;;105.82;21.73;;;7.80;99.90;;;;;;5131568;27;20110;-75
2021/12/29 10:21:13;;;;;;;95.78;22.15;;;7.80;99.90;;;;;;5128499;27;20534;-75
2021/12/29 10:23:43;;;;;;;78.00;17.58;;;7.90;99.90;;;;;;5132326;27;20115;-75
2021/12/29 10:26:10;;;;;;;79.50;21.98;;;7.90;99.90;;;;;;5134674;27;20042;-75
2021/12/29 10:28:39;;;;;;;85.20;34.03;;;7.90;99.90;;;;;;5151939;27;20114;-75
2021/12/29 10:31:11;;;;;;;64.97;18.48;;;7.90;99.90;;;;;;5134310;27;20035;-77
2021/12/29 10:33:40;;;;;;;48.88;16.50;;;7.90;99.90;;;;;;5131218;27;20039;-78
2021/12/29 10:36:25;;;;;;;45.97;14.50;;;8.00;99.90;;;;;;5131789;27;20035;-78
2021/12/29 10:39:13;;;;;;;61.17;16.00;;;8.00;99.90;;;;;;5133882;27;20047;-76
2021/12/29 10:41:49;;;;;;;42.25;15.88;;;8.00;99.90;;;;;;5132184;27;20481;-76
2021/12/29 10:44:24;;;;;;;37.42;13.95;;;8.40;99.90;;;;;;5131431;27;20047;-76
2021/12/29 10:46:55;;;;;;;;;;;8.00;99.90;;;;;;5129251;27;20058;-77
2021/12/29 10:49:26;;;;;;;30.52;11.75;;;8.00;99.90;;;;;;5133566;27;19923;-76
2021/12/29 10:51:54;;;;;;;28.88;11.68;;;8.10;99.90;;;;;;5127738;27;20030;-76
2021/12/29 10:54:24;;;;;;;30.42;12.57;;;8.10;99.90;;;;;;5133371;27;20050;-76
2021/12/29 10:56:59;;;;;;;29.75;11.35;;;8.10;99.90;;;;;;5131506;27;20034;-76
2021/12/29 10:59:29;;;;;;;27.85;10.52;;;8.00;99.90;;;;;;5131017;27;20066;-77
2021/12/29 11:01:56;;;;;;;27.00;10.70;;;8.00;99.90;;;;;;5130462;27;20043;-76
2021/12/29 11:04:22;;;;;;;30.88;11.40;;;8.10;99.90;;;;;;5132016;27;20054;-77
2021/12/29 11:06:49;;;;;;;30.98;10.65;;;8.10;99.90;;;;;;5132182;27;20054;-75
2021/12/29 11:09:24;;;;;;;28.98;10.90;;;8.10;99.90;;;;;;5130413;27;20397;-75
2021/12/29 11:11:49;;;;;;;;;;;8.10;99.90;;;;;;5126186;27;20048;-70
2021/12/29 11:14:21;;;;;;;23.95;10.70;;;8.40;99.90;;;;;;5130726;27;20282;-75
2021/12/29 11:16:58;;;;;;;33.03;13.93;;;8.10;99.90;;;;;;5132761;27;20046;-75
2021/12/29 11:19:24;;;;;;;30.20;10.93;;;8.00;99.90;;;;;;5129228;27;20095;-75
2021/12/29 11:21:51;;;;;;;27.48;13.40;;;8.00;99.90;;;;;;5149331;27;20038;-75
2021/12/29 11:24:26;;;;;;;24.65;11.35;;;8.10;99.90;;;;;;5130843;27;20051;-75
2021/12/29 11:26:54;;;;;;;32.85;10.88;;;8.10;99.90;;;;;;5129572;27;20098;-75
2021/12/29 11:29:21;;;;;;;29.52;11.43;;;8.00;99.90;;;;;;5130167;27;21879;-74
2021/12/29 11:31:50;;;;;;;30.35;12.82;;;8.10;99.90;;;;;;5147375;27;20035;-74
2021/12/29 11:34:26;;;;;;;32.00;11.35;;;8.10;99.90;;;;;;5133049;27;20839;-74
2021/12/29 11:37:04;;;;;;;25.95;11.52;;;8.00;99.90;;;;;;5153124;27;20049;-76
2021/12/29 11:39:36;;;;;;;33.65;11.57;;;8.10;99.90;;;;;;5149381;27;20046;-74
2021/12/29 11:42:02;;;;;;;32.15;9.05;;;8.10;99.90;;;;;;5127203;27;20085;-74
2021/12/29 11:44:28;;;;;;;26.70;10.25;;;8.10;99.90;;;;;;5129424;27;20066;-75
2021/12/29 11:46:54;;;;;;;27.90;9.60;;;8.10;99.90;;;;;;5130034;27;20556;-75
2021/12/29 11:49:20;;;;;;;28.42;10.25;;;8.10;99.90;;;;;;5151856;27;20038;-75
2021/12/29 11:52:01;;;;;;;28.27;11.15;;;8.10;99.90;;;;;;5146336;27;20516;-75
2021/12/29 11:55:02;;;;;;;29.73;9.70;;;8.10;99.90;;;;;;5129154;27;20043;-75
2021/12/29 11:57:30;;;;;;;30.63;10.60;;;8.10;99.90;;;;;;5095947;27;20054;-75
2021/12/29 12:00:18;;;;;;;33.63;10.45;;;8.20;99.90;;;;;;5129728;27;20452;-75
2021/12/29 12:02:53;;;;;;;29.75;11.48;;;8.20;99.90;;;;;;5125533;27;20042;-75
2021/12/29 12:05:33;;;;;;;36.13;10.82;;;8.20;99.90;;;;;;5129088;27;20501;-75
2021/12/29 12:08:07;;;;;;;32.33;10.00;;;8.40;99.90;;;;;;5130305;27;20055;-75
2021/12/29 12:10:36;;;;;;;29.65;10.85;;;8.30;99.90;;;;;;5146021;27;20027;-75
2021/12/29 12:13:05;;;;;;;35.15;10.95;;;8.30;99.90;;;;;;5124995;27;20490;-75
2021/12/29 12:15:40;;;;;;;28.77;12.38;;;8.30;99.90;;;;;;5150033;27;20524;-75
2021/12/29 12:18:08;;;;;;;28.90;10.82;;;8.40;99.90;;;;;;5127786;27;20057;-71
2021/12/29 12:20:49;;;;;;;27.90;11.43;;;8.40;99.90;;;;;;5145197;27;20119;-74
2021/12/29 12:23:29;;;;;;;29.42;11.02;;;8.40;99.90;;;;;;5125464;27;20099;-78
2021/12/29 12:26:08;;;;;;;28.90;11.60;;;8.40;99.90;;;;;;5129604;27;20053;-75
2021/12/29 12:28:47;;;;;;;27.23;10.20;;;8.50;99.90;;;;;;5148125;27;20035;-75
2021/12/29 12:31:30;;;;;;;26.25;10.75;;;8.50;99.90;;;;;;5129930;27;20062;-76
2021/12/29 12:34:12;;;;;;;19.70;8.55;;;8.50;99.90;;;;;;5124947;27;20078;-75
2021/12/29 12:36:41;;;;;;;28.00;11.38;;;8.50;99.90;;;;;;5147573;27;20050;-76
2021/12/29 12:39:14;;;;;;;26.33;10.20;;;8.40;99.90;;;;;;5128396;27;20485;-80
2021/12/29 12:41:48;;;;;;;23.42;9.18;;;8.40;99.90;;;;;;5129003;27;20046;-69
2021/12/29 12:44:17;;;;;;;32.80;9.23;;;8.40;99.90;;;;;;5129106;27;20095;-71